Time;durP1;ratioP1;P1;durP2;ratioP2;P2;SDS_P1;SDS_P2;PMS_P1;PMS_P2;Temp;Humidity;BMP_temperature;BMP_pressure;BME280_temperature;BME280_humidity;BME280_pressure;Samples;Min_cycle;Max_cycle;Signal;HPM_P1;HPM_P2
2020/12/29 00:01:29;;;;;;;;;;;1.90;99.90;;;;;;5078370;28;20400;-74
2020/12/29 00:03:54;;;;;;;;;;;1.90;99.90;;;;;;5069875;28;19919;-74
2020/12/29 00:06:20;;;;;;;;;;;1.90;99.90;;;;;;5070201;28;19909;-74
2020/12/29 00:08:45;;;;;;;;;;;1.90;99.90;;;;;;5070868;28;19912;-74
2020/12/29 00:11:11;;;;;;;;;;;1.90;99.90;;;;;;5071130;28;20287;-74
2020/12/29 00:13:36;;;;;;;;;;;1.90;99.90;;;;;;5070621;28;19916;-74
2020/12/29 00:16:02;;;;;;;;;;;1.80;99.90;;;;;;5069368;28;19914;-74
2020/12/29 00:18:27;;;;;;;;;;;1.90;99.90;;;;;;5070602;28;20628;-74
2020/12/29 00:20:53;;;;;;;;;;;1.90;99.90;;;;;;5070952;28;19962;-76
2020/12/29 00:23:18;;;;;;;;;;;1.90;99.90;;;;;;5070454;28;19999;-79
2020/12/29 00:25:43;;;;;;;;;;;1.90;99.90;;;;;;5067173;28;19923;-76
2020/12/29 00:28:09;;;;;;;;;;;1.90;99.90;;;;;;5075000;28;19913;-76
2020/12/29 00:30:34;;;;;;;;;;;2.00;99.90;;;;;;5070030;28;19999;-77
2020/12/29 00:33:00;;;;;;;;;;;2.00;99.90;;;;;;5069648;28;20411;-76
2020/12/29 00:35:25;;;;;;;;;;;2.10;99.90;;;;;;5077236;28;19917;-74
2020/12/29 00:37:51;;;;;;;;;;;2.10;99.90;;;;;;5074053;28;19995;-74
2020/12/29 00:40:16;;;;;;;;;;;2.10;99.90;;;;;;5069467;28;19935;-76
2020/12/29 00:42:42;;;;;;;;;;;2.10;99.90;;;;;;5075389;28;19912;-74
2020/12/29 00:45:07;;;;;;;;;;;2.20;99.90;;;;;;5074548;28;19956;-74
2020/12/29 00:47:33;;;;;;;;;;;2.20;99.90;;;;;;5073206;28;20276;-74
2020/12/29 00:49:58;;;;;;;;;;;2.30;99.90;;;;;;5074406;28;20415;-74
2020/12/29 00:52:24;;;;;;;;;;;2.40;99.90;;;;;;5075342;28;20003;-74
2020/12/29 00:54:49;;;;;;;;;;;2.40;99.90;;;;;;5082757;28;20375;-74
2020/12/29 00:57:15;;;;;;;;;;;2.40;99.90;;;;;;5072577;28;19919;-76
2020/12/29 00:59:40;;;;;;;;;;;2.30;99.90;;;;;;5091600;28;19911;-73
2020/12/29 01:02:06;;;;;;;;;;;2.30;99.90;;;;;;5074046;28;19919;-74
2020/12/29 01:04:31;;;;;;;;;;;2.20;99.90;;;;;;5073329;28;19914;-74
2020/12/29 01:06:57;;;;;;;;;;;2.10;99.90;;;;;;5073610;28;19915;-73
2020/12/29 01:09:22;;;;;;;;;;;2.10;99.90;;;;;;5074064;28;19908;-74
2020/12/29 01:11:49;;;;;;;;;;;2.10;99.90;;;;;;5072105;28;19912;-75
2020/12/29 01:14:15;;;;;;;;;;;2.00;99.90;;;;;;5073983;28;19909;-74
2020/12/29 01:16:40;;;;;;;;;;;2.00;99.90;;;;;;5081057;28;20309;-75
2020/12/29 01:19:06;;;;;;;;;;;2.00;99.90;;;;;;5085817;28;19919;-74
2020/12/29 01:21:31;;;;;;;;;;;2.00;99.90;;;;;;5072504;28;19916;-76
2020/12/29 01:23:57;;;;;;;;;;;2.00;99.90;;;;;;5072492;28;19958;-77
2020/12/29 01:26:23;;;;;;;;;;;2.00;99.90;;;;;;5072555;28;19924;-77
2020/12/29 01:28:49;;;;;;;;;;;2.10;99.90;;;;;;5072431;28;19916;-74
2020/12/29 01:31:15;;;;;;;;;;;2.10;99.90;;;;;;5072982;28;19917;-74
2020/12/29 01:33:40;;;;;;;;;;;2.10;99.90;;;;;;5081577;28;19908;-74
2020/12/29 01:36:08;;;;;;;;;;;2.10;99.90;;;;;;5072637;28;19912;-76
2020/12/29 01:38:33;;;;;;;;;;;2.10;99.90;;;;;;5071715;28;19995;-74
2020/12/29 01:40:59;;;;;;;;;;;2.10;99.90;;;;;;5071945;28;19955;-74
2020/12/29 01:43:28;;;;;;;;;;;2.20;99.90;;;;;;5071878;28;19954;-74
2020/12/29 01:45:53;;;;;;;;;;;2.20;99.90;;;;;;5071595;28;19915;-77
2020/12/29 01:48:19;;;;;;;;;;;2.20;99.90;;;;;;5071534;28;20023;-77
2020/12/29 01:50:44;;;;;;;;;;;2.30;99.90;;;;;;5073090;28;20002;-75
2020/12/29 01:53:10;;;;;;;;;;;2.30;99.90;;;;;;5071753;28;19908;-74
2020/12/29 01:55:35;;;;;;;;;;;2.40;99.90;;;;;;5088001;28;20049;-75
2020/12/29 01:58:01;;;;;;;;;;;2.40;99.90;;;;;;5072871;28;19953;-75
2020/12/29 02:00:27;;;;;;;;;;;2.40;99.90;;;;;;5072756;28;19909;-75
2020/12/29 02:02:53;;;;;;;;;;;2.40;99.90;;;;;;5072968;28;19908;-75
2020/12/29 02:05:18;;;;;;;;;;;2.40;99.90;;;;;;5072436;28;20272;-74
2020/12/29 02:07:47;;;;;;;;;;;2.40;99.90;;;;;;5070785;28;20407;-74
2020/12/29 02:10:14;;;;;;;;;;;2.50;99.90;;;;;;5072796;28;19909;-76
2020/12/29 02:12:39;;;;;;;;;;;2.50;99.90;;;;;;5070061;28;19919;-74
2020/12/29 02:15:06;;;;;;;;;;;2.50;99.90;;;;;;5070575;28;19909;-77
2020/12/29 02:17:32;;;;;;;;;;;2.60;99.90;;;;;;5072395;28;19909;-74
2020/12/29 02:19:57;;;;;;;;;;;2.60;99.90;;;;;;5093103;28;20280;-74
2020/12/29 02:22:24;;;;;;;;;;;2.60;99.90;;;;;;5066827;28;19914;-75
2020/12/29 02:24:53;;;;;;;;;;;2.60;99.90;;;;;;5079104;28;19912;-74
2020/12/29 02:27:19;;;;;;;;;;;2.60;99.90;;;;;;5071944;28;20629;-74
2020/12/29 02:29:45;;;;;;;;;;;2.60;99.90;;;;;;5070705;28;20088;-74
2020/12/29 02:32:10;;;;;;;;;;;2.60;99.90;;;;;;5072072;28;20436;-74
2020/12/29 02:34:37;;;;;;;;;;;2.60;99.90;;;;;;5070824;28;19912;-73
2020/12/29 02:37:06;;;;;;;;;;;2.60;99.90;;;;;;5070620;28;19931;-74
2020/12/29 02:39:33;;;;;;;;;;;2.60;99.90;;;;;;5070638;28;19915;-75
2020/12/29 02:41:58;;;;;;;;;;;2.70;99.90;;;;;;5080460;28;19913;-74
2020/12/29 02:44:24;;;;;;;;;;;2.70;99.90;;;;;;5070809;28;19915;-74
2020/12/29 02:46:49;;;;;;;;;;;2.70;99.90;;;;;;5070955;28;19923;-77
2020/12/29 02:49:15;;;;;;;;;;;2.70;99.90;;;;;;5071478;28;20010;-74
2020/12/29 02:51:41;;;;;;;;;;;2.70;99.90;;;;;;5070192;28;19912;-74
2020/12/29 02:54:07;;;;;;;;;;;2.70;99.90;;;;;;5071010;28;20392;-74
2020/12/29 02:56:32;;;;;;;;;;;2.70;99.90;;;;;;5070254;28;20319;-74
2020/12/29 02:58:57;;;;;;;;;;;2.70;99.90;;;;;;5070229;28;19958;-78
2020/12/29 03:01:27;;;;;;;;;;;2.70;99.90;;;;;;5071628;28;20007;-74
2020/12/29 03:03:52;;;;;;;;;;;2.70;99.90;;;;;;5071502;28;19916;-75
2020/12/29 03:06:18;;;;;;;;;;;2.60;99.90;;;;;;5070991;28;19909;-76
2020/12/29 03:08:43;;;;;;;;;;;2.60;99.90;;;;;;5071478;28;20426;-74
2020/12/29 03:11:08;;;;;;;;;;;2.60;99.90;;;;;;5071706;28;19920;-75
2020/12/29 03:13:34;;;;;;;;;;;2.50;99.90;;;;;;5068738;28;19976;-77
2020/12/29 03:15:59;;;;;;;;;;;2.50;99.90;;;;;;5070815;28;19959;-74
2020/12/29 03:18:25;;;;;;;;;;;2.40;99.90;;;;;;5071650;28;20335;-74
2020/12/29 03:20:50;;;;;;;;;;;2.40;99.90;;;;;;5071068;28;19916;-75
2020/12/29 03:23:16;;;;;;;;;;;2.30;99.90;;;;;;5071250;28;19954;-74
2020/12/29 03:25:41;;;;;;;;;;;2.30;99.90;;;;;;5070871;28;19954;-74
2020/12/29 03:28:07;;;;;;;;;;;2.30;99.90;;;;;;5070921;28;19930;-74
2020/12/29 03:30:32;;;;;;;;;;;2.30;99.90;;;;;;5070964;28;19966;-77
2020/12/29 03:32:58;;;;;;;;;;;2.30;99.90;;;;;;5066040;28;20370;-74
2020/12/29 03:35:23;;;;;;;;;;;2.30;99.90;;;;;;5054929;28;19908;-74
2020/12/29 03:37:48;;;;;;;;;;;2.30;99.90;;;;;;5053819;28;19909;-75
2020/12/29 03:40:14;;;;;;;;;;;2.30;99.90;;;;;;5056621;28;19909;-74
2020/12/29 03:42:39;;;;;;;;;;;2.30;99.90;;;;;;5055322;28;19908;-74
2020/12/29 03:45:05;;;;;;;;;;;2.30;99.90;;;;;;5059699;28;19912;-74
2020/12/29 03:47:30;;;;;;;;;;;2.30;99.90;;;;;;5056318;28;19934;-75
2020/12/29 03:49:56;;;;;;;;;;;2.30;99.90;;;;;;5070252;28;20416;-74
2020/12/29 03:52:21;;;;;;;;;;;2.40;99.90;;;;;;5066206;28;19917;-74
2020/12/29 03:54:47;;;;;;;;;;;2.40;99.90;;;;;;5068854;28;19916;-77
2020/12/29 03:57:12;;;;;;;;;;;2.40;99.90;;;;;;5070282;28;19915;-74
2020/12/29 03:59:38;;;;;;;;;;;2.40;99.90;;;;;;5069724;28;19909;-74
2020/12/29 04:02:03;;;;;;;;;;;2.40;99.90;;;;;;5070622;28;19915;-75
2020/12/29 04:04:29;;;;;;;;;;;2.40;99.90;;;;;;5070672;28;19909;-74
2020/12/29 04:06:54;;;;;;;;;;;2.40;99.90;;;;;;5070043;28;19919;-74
2020/12/29 04:09:27;;;;;;;;;;;2.30;99.90;;;;;;5072544;28;20273;-74
2020/12/29 04:11:52;;;;;;;;;;;2.30;99.90;;;;;;5073221;28;20339;-74
2020/12/29 04:14:18;;;;;;;;;;;2.30;99.90;;;;;;5074586;28;19908;-74
2020/12/29 04:16:43;;;;;;;;;;;2.30;99.90;;;;;;5072931;28;20299;-77
2020/12/29 04:19:09;;;;;;;;;;;2.30;99.90;;;;;;5073239;28;19908;-74
2020/12/29 04:21:36;;;;;;;;;;;2.20;99.90;;;;;;5074677;28;19956;-74
2020/12/29 04:24:02;;;;;;;;;;;2.20;99.90;;;;;;5073422;28;19915;-74
2020/12/29 04:26:27;;;;;;;;;;;2.30;99.90;;;;;;5076797;28;19908;-74
2020/12/29 04:28:53;;;;;;;;;;;2.30;99.90;;;;;;5074325;28;19908;-74
2020/12/29 04:31:22;;;;;;;;;;;2.30;99.90;;;;;;5074191;28;20289;-74
2020/12/29 04:33:48;;;;;;;;;;;2.30;99.90;;;;;;5074074;28;20388;-77
2020/12/29 04:36:13;;;;;;;;;;;2.30;99.90;;;;;;5074112;28;19912;-76
2020/12/29 04:38:39;;;;;;;;;;;2.40;99.90;;;;;;5072844;28;19909;-76
2020/12/29 04:41:04;;;;;;;;;;;2.40;99.90;;;;;;5074159;28;19963;-77
2020/12/29 04:43:30;;;;;;;;;;;2.40;99.90;;;;;;5074143;28;19915;-75
2020/12/29 04:45:59;;;;;;;;;;;2.50;99.90;;;;;;5073530;28;20373;-76
2020/12/29 04:48:25;;;;;;;;;;;2.40;99.90;;;;;;5073758;28;20365;-74
2020/12/29 04:50:51;;;;;;;;;;;2.40;99.90;;;;;;5073783;28;20347;-74
2020/12/29 04:53:19;;;;;;;;;;;2.40;99.90;;;;;;5071577;28;19908;-74
2020/12/29 04:55:51;;;;;;;;;;;2.40;99.90;;;;;;5078844;28;19908;-74
2020/12/29 04:58:16;;;;;;;;;;;2.30;99.90;;;;;;5073665;28;19974;-74
2020/12/29 05:00:42;;;;;;;;;;;2.30;99.90;;;;;;5072546;28;20516;-74
2020/12/29 05:03:08;;;;;;;;;;;2.30;99.90;;;;;;5073595;28;19910;-74
2020/12/29 05:05:33;;;;;;;;;;;2.30;99.90;;;;;;5073455;28;19916;-77
2020/12/29 05:07:59;;;;;;;;;;;2.30;99.90;;;;;;5073455;28;19969;-74
2020/12/29 05:10:24;;;;;;;;;;;2.30;99.90;;;;;;5072347;28;20385;-74
2020/12/29 05:12:51;;;;;;;;;;;2.30;99.90;;;;;;5073527;28;20007;-74
2020/12/29 05:15:17;;;;;;;;;;;2.30;99.90;;;;;;5073494;28;19919;-74
2020/12/29 05:17:42;;;;;;;;;;;2.30;99.90;;;;;;5073436;28;19987;-74
2020/12/29 05:20:08;;;;;;;;;;;2.30;99.90;;;;;;5072737;28;20008;-74
2020/12/29 05:22:35;;;;;;;;;;;2.20;99.90;;;;;;5073438;28;20296;-74
2020/12/29 05:25:00;;;;;;;;;;;2.20;99.90;;;;;;5072367;28;19908;-74
2020/12/29 05:27:26;;;;;;;;;;;2.20;99.90;;;;;;5071285;28;19913;-74
2020/12/29 05:29:52;;;;;;;;;;;2.10;99.90;;;;;;5073048;28;19962;-74
2020/12/29 05:32:17;;;;;;;;;;;2.00;99.90;;;;;;5072854;28;19952;-76
2020/12/29 05:34:43;;;;;;;;;;;1.90;99.90;;;;;;5073058;28;20334;-75
2020/12/29 05:37:13;;;;;;;;;;;1.80;99.90;;;;;;5072698;28;20007;-74
2020/12/29 05:39:38;;;;;;;;;;;1.80;99.90;;;;;;5071681;28;19909;-74
2020/12/29 05:42:04;;;;;;;;;;;1.70;99.90;;;;;;5073008;28;20323;-75
2020/12/29 05:44:31;;;;;;;;;;;1.70;99.90;;;;;;5071894;28;19999;-75
2020/12/29 05:46:57;;;;;;;;;;;1.70;99.90;;;;;;5072531;28;19912;-74
2020/12/29 05:49:23;;;;;;;;;;;1.70;99.90;;;;;;5072905;28;19953;-74
2020/12/29 05:51:49;;;;;;;;;;;1.70;99.90;;;;;;5072786;28;19982;-74
2020/12/29 05:54:16;;;;;;;;;;;1.70;99.90;;;;;;5072384;28;19909;-74
2020/12/29 05:56:42;;;;;;;;;;;1.70;99.90;;;;;;5073568;28;20250;-76
2020/12/29 05:59:07;;;;;;;;;;;1.70;99.90;;;;;;5071080;28;19986;-74
2020/12/29 06:01:40;;;;;;;;;;;1.70;99.90;;;;;;5072859;28;19913;-74
2020/12/29 06:04:05;;;;;;;;;;;1.70;99.90;;;;;;5072591;28;19908;-74
2020/12/29 06:06:31;;;;;;;;;;;1.70;99.90;;;;;;5070873;28;19912;-74
2020/12/29 06:08:59;;;;;;;;;;;1.70;99.90;;;;;;5072577;28;19909;-74
2020/12/29 06:11:32;;;;;;;;;;;1.80;99.90;;;;;;5071071;28;19924;-74
2020/12/29 06:13:57;;;;;;;;;;;1.80;99.90;;;;;;5072311;28;19908;-74
2020/12/29 06:16:28;;;;;;;;;;;1.80;99.90;;;;;;5072012;28;19908;-74
2020/12/29 06:18:58;;;;;;;;;;;1.80;99.90;;;;;;5072156;28;19934;-74
2020/12/29 06:21:27;;;;;;;;;;;1.90;99.90;;;;;;5072181;28;19931;-74
2020/12/29 06:23:55;;;;;;;;;;;1.90;99.90;;;;;;5071005;28;20258;-75
2020/12/29 06:26:27;;;;;;;;;;;1.90;99.90;;;;;;5077709;28;19991;-74
2020/12/29 06:28:53;;;;;;;;;;;1.90;99.90;;;;;;5071971;28;19908;-75
2020/12/29 06:31:26;;;;;;;;;;;1.90;99.90;;;;;;5070900;28;19917;-77
2020/12/29 06:33:53;;;;;;;;;;;1.80;99.90;;;;;;5070767;28;20328;-74
2020/12/29 06:36:19;;;;;;;;;;;1.80;99.90;;;;;;5071540;28;19947;-75
2020/12/29 06:38:45;;;;;;;;;;;1.80;99.90;;;;;;5071796;28;20186;-75
2020/12/29 06:41:13;;;;;;;;;;;1.70;99.90;;;;;;5071765;28;19912;-77
2020/12/29 06:43:38;;;;;;;;;;;1.70;99.90;;;;;;5071895;28;19948;-74
2020/12/29 06:46:11;;;;;;;;;;;1.70;99.90;;;;;;5071549;28;20342;-74
2020/12/29 06:48:37;;;;;;;;;;;1.80;99.90;;;;;;5071740;28;20003;-74
2020/12/29 06:51:12;;;;;;;;;;;1.80;99.90;;;;;;5071596;28;20325;-78
2020/12/29 06:53:42;;;;;;;;;;;1.80;99.90;;;;;;5070540;28;20376;-74
2020/12/29 06:56:14;;;;;;;;;;;1.90;99.90;;;;;;5066557;28;19954;-76
2020/12/29 06:58:39;;;;;;;;;;;1.90;99.90;;;;;;5065599;28;19951;-75
2020/12/29 07:01:21;;;;;;;;;;;1.90;99.90;;;;;;5070028;28;19908;-74
2020/12/29 07:03:48;;;;;;;;;;;1.90;99.90;;;;;;5071405;28;20280;-74
2020/12/29 07:06:13;;;;;;;;;;;1.90;99.90;;;;;;5070988;28;19955;-76
2020/12/29 07:08:39;;;;;;;;;;;1.90;99.90;;;;;;5071422;28;20248;-74
2020/12/29 07:11:17;;;;;;;;;;;1.90;99.90;;;;;;5071526;28;20368;-76
2020/12/29 07:13:48;;;;;;;;;;;1.90;99.90;;;;;;5071798;28;19908;-74
2020/12/29 07:16:13;;;;;;;;;;;1.90;99.90;;;;;;5070706;28;19908;-78
2020/12/29 07:18:42;;;;;;;;;;;1.90;99.90;;;;;;5071143;28;20070;-74
2020/12/29 07:21:21;;;;;;;;;;;1.90;99.90;;;;;;5071178;28;19962;-76
2020/12/29 07:23:48;;;;;;;;;;;1.90;99.90;;;;;;5071142;28;19919;-75
2020/12/29 07:26:14;;;;;;;;;;;1.90;99.90;;;;;;5075383;28;20289;-75
2020/12/29 07:28:40;;;;;;;;;;;2.00;99.90;;;;;;5071428;28;19908;-77
2020/12/29 07:31:05;;;;;;;;;;;2.00;99.90;;;;;;5070872;28;19924;-74
2020/12/29 07:33:32;;;;;;;;;;;2.00;99.90;;;;;;5071075;28;20326;-74
2020/12/29 07:35:57;;;;;;;;;;;2.00;99.90;;;;;;5070741;28;19909;-74
2020/12/29 07:38:26;;;;;;;;;;;2.00;99.90;;;;;;5071045;28;19916;-74
2020/12/29 07:40:53;;;;;;;;;;;2.10;99.90;;;;;;5071073;28;20323;-78
2020/12/29 07:43:18;;;;;;;;;;;2.10;99.90;;;;;;5069308;28;19908;-77
2020/12/29 07:45:44;;;;;;;;;;;2.10;99.90;;;;;;5070422;28;19966;-74
2020/12/29 07:48:09;;;;;;;;;;;2.10;99.90;;;;;;5070296;28;19963;-74
2020/12/29 07:50:36;;;;;;;;;;;2.10;99.90;;;;;;5071112;28;19977;-74
2020/12/29 07:53:02;;;;;;;;;;;2.10;99.90;;;;;;5070865;28;19920;-74
2020/12/29 07:55:27;;;;;;;;;;;2.20;99.90;;;;;;5070314;28;19912;-74
2020/12/29 07:57:53;;;;;;;;;;;2.20;99.90;;;;;;5070051;28;19908;-75
2020/12/29 08:00:18;;;;;;;;;;;2.20;99.90;;;;;;5070733;28;19962;-74
2020/12/29 08:02:51;;;;;;;;;;;2.20;99.90;;;;;;5070931;28;19920;-74
2020/12/29 08:05:19;;;;;;;;;;;2.20;99.90;;;;;;5070784;28;19920;-76
2020/12/29 08:07:51;;;;;;;;;;;2.30;99.90;;;;;;5070450;28;20396;-77
2020/12/29 08:10:19;;;;;;;;;;;2.30;99.90;;;;;;5070729;28;19966;-76
2020/12/29 08:12:45;;;;;;;;;;;2.30;99.90;;;;;;5070563;28;20392;-76
2020/12/29 08:15:22;;;;;;;;;;;2.30;99.90;;;;;;5069284;28;19913;-76
2020/12/29 08:17:58;;;;;;;;;;;2.30;99.90;;;;;;5070525;28;19908;-75
2020/12/29 08:20:23;;;;;;;;;;;2.40;99.90;;;;;;5070709;28;19955;-74
2020/12/29 08:22:49;;;;;;;;;;;2.40;99.90;;;;;;5069357;28;19974;-74
2020/12/29 08:25:15;;;;;;;;;;;2.40;99.90;;;;;;5070007;28;19917;-74
2020/12/29 08:27:41;;;;;;;;;;;2.40;99.90;;;;;;5070032;28;19954;-74
2020/12/29 08:30:07;;;;;;;;;;;2.50;99.90;;;;;;5070344;28;19921;-74
2020/12/29 08:32:33;;;;;;;;;;;2.50;99.90;;;;;;5070500;28;19916;-74
2020/12/29 08:34:59;;;;;;;;;;;2.50;99.90;;;;;;5070520;28;19908;-74
2020/12/29 08:37:24;;;;;;;;;;;2.60;99.90;;;;;;5070049;28;19969;-75
2020/12/29 08:39:52;;;;;;;;;;;2.60;99.90;;;;;;5070434;28;19909;-75
2020/12/29 08:42:18;;;;;;;;;;;2.70;99.90;;;;;;5070401;28;19916;-74
2020/12/29 08:44:44;;;;;;;;;;;2.80;99.90;;;;;;5070374;28;19912;-74
2020/12/29 08:47:10;;;;;;;;;;;2.80;99.90;;;;;;5069998;28;19952;-74
2020/12/29 08:49:36;;;;;;;;;;;2.90;99.90;;;;;;5070218;28;20354;-75
2020/12/29 08:52:02;;;;;;;;;;;3.00;99.90;;;;;;5070139;28;19939;-77
2020/12/29 08:54:33;;;;;;;;;;;3.00;99.90;;;;;;5069241;28;19950;-74
2020/12/29 08:56:59;;;;;;;;;;;3.10;99.90;;;;;;5072140;28;19908;-75
2020/12/29 08:59:25;;;;;;;;;;;3.10;99.90;;;;;;5073740;28;19908;-74
2020/12/29 09:01:55;;;;;;;;;;;3.20;99.90;;;;;;5073816;28;19908;-74
2020/12/29 09:04:34;;;;;;;;;;;3.20;99.90;;;;;;5073721;28;19908;-74
2020/12/29 09:07:05;;;;;;;;;;;3.20;99.90;;;;;;5073385;28;20292;-74
2020/12/29 09:09:32;;;;;;;;;;;3.30;99.90;;;;;;5072221;28;19908;-74
2020/12/29 09:12:24;;;;;;;;;;;3.30;99.90;;;;;;5073501;28;20351;-74
2020/12/29 09:14:51;;;;;;;;;;;3.30;99.90;;;;;;5068065;28;19977;-74
2020/12/29 09:17:17;;;;;;;;;;;3.30;99.90;;;;;;5071958;28;19912;-75
2020/12/29 09:20:02;;;;;;;;;;;3.30;99.90;;;;;;5073314;28;20344;-75
2020/12/29 09:22:28;;;;;;;;;;;3.20;99.90;;;;;;5073251;28;19995;-74
2020/12/29 09:24:53;;;;;;;;;;;3.10;99.90;;;;;;5073130;28;20449;-74
2020/12/29 09:27:32;;;;;;;;;;;3.00;99.90;;;;;;5072642;28;19908;-74
2020/12/29 09:29:57;;;;;;;;;;;3.00;99.90;;;;;;5073273;28;20338;-75
2020/12/29 09:32:24;;;;;;;;;;;2.90;99.90;;;;;;5073603;28;19947;-75
2020/12/29 09:34:52;;;;;;;;;;;2.90;99.90;;;;;;5073096;28;19915;-74
2020/12/29 09:37:18;;;;;;;;;;;2.90;99.90;;;;;;5072828;28;19993;-74
2020/12/29 09:39:44;;;;;;;;;;;2.90;99.90;;;;;;5072819;28;19965;-74
2020/12/29 09:42:09;;;;;;;;;;;2.90;99.90;;;;;;5072792;28;20432;-74
2020/12/29 09:44:35;;;;;;;;;;;3.00;99.90;;;;;;5072419;28;19952;-75
2020/12/29 09:47:00;;;;;;;;;;;3.10;99.90;;;;;;5071301;28;19916;-74
2020/12/29 09:49:26;;;;;;;;;;;3.10;99.90;;;;;;5071519;28;20318;-74
2020/12/29 09:51:54;;;;;;;;;;;3.10;99.90;;;;;;5072708;28;19912;-75
2020/12/29 09:54:20;;;;;;;;;;;3.10;99.90;;;;;;5071657;28;19961;-74
2020/12/29 09:56:45;;;;;;;;;;;3.10;99.90;;;;;;5071849;28;20007;-77
2020/12/29 09:59:11;;;;;;;;;;;3.10;99.90;;;;;;5072563;28;19909;-74
2020/12/29 10:01:36;;;;;;;;;;;3.20;99.90;;;;;;5072470;28;19912;-74
2020/12/29 10:04:02;;;;;;;;;;;3.20;99.90;;;;;;5072629;28;19999;-77
2020/12/29 10:06:28;;;;;;;;;;;3.30;99.90;;;;;;5064741;28;20293;-74
2020/12/29 10:08:53;;;;;;;;;;;3.30;99.90;;;;;;5070935;28;19912;-74
2020/12/29 10:11:18;;;;;;;;;;;3.30;99.90;;;;;;5069658;28;19916;-74
2020/12/29 10:13:44;;;;;;;;;;;3.30;99.90;;;;;;5072055;28;20281;-74
2020/12/29 10:16:09;;;;;;;;;;;3.30;99.90;;;;;;5065883;28;20435;-77
2020/12/29 10:18:35;;;;;;;;;;;3.30;99.90;;;;;;5055230;28;19919;-74
2020/12/29 10:21:00;;;;;;;;;;;3.40;99.90;;;;;;5054418;28;19915;-75
2020/12/29 10:23:26;;;;;;;;;;;3.40;99.90;;;;;;5057989;28;20365;-75
2020/12/29 10:25:51;;;;;;;;;;;3.50;99.90;;;;;;5071249;28;20285;-75
2020/12/29 10:28:19;;;;;;;;;;;3.60;99.90;;;;;;5070504;28;19912;-74
2020/12/29 10:30:45;;;;;;;;;;;3.80;99.90;;;;;;5065395;28;19921;-74
2020/12/29 10:33:11;;;;;;;;;;;3.90;99.90;;;;;;5072386;28;20376;-74
2020/12/29 10:35:38;;;;;;;;;;;3.80;99.90;;;;;;5072076;28;19908;-74
2020/12/29 10:38:04;;;;;;;;;;;3.80;99.90;;;;;;5072094;28;19930;-74
2020/12/29 10:40:29;;;;;;;;;;;3.80;99.90;;;;;;5071994;28;19978;-74
2020/12/29 10:42:55;;;;;;;;;;;3.70;99.90;;;;;;5071933;28;19908;-74
2020/12/29 10:45:20;;;;;;;;;;;3.70;99.90;;;;;;5071882;28;19915;-75
2020/12/29 10:47:46;;;;;;;;;;;3.70;99.90;;;;;;5071537;28;19986;-73
2020/12/29 10:50:11;;;;;;;;;;;3.70;99.90;;;;;;5070561;28;20380;-74
2020/12/29 10:52:37;;;;;;;;;;;3.70;99.90;;;;;;5071818;28;19919;-75
2020/12/29 10:55:02;;;;;;;;;;;3.70;99.90;;;;;;5071895;28;20373;-74
2020/12/29 10:57:28;;;;;;;;;;;3.70;99.90;;;;;;5071103;28;19912;-74
2020/12/29 10:59:53;;;;;;;;;;;3.80;99.90;;;;;;5070089;28;20405;-74
2020/12/29 11:02:19;;;;;;;;;;;3.90;99.90;;;;;;5071688;28;19909;-77
2020/12/29 11:04:44;;;;;;;;;;;3.90;99.90;;;;;;5071626;28;20061;-74
2020/12/29 11:07:09;;;;;;;;;;;3.90;99.90;;;;;;5071431;28;19915;-74
2020/12/29 11:09:35;;;;;;;;;;;4.00;99.90;;;;;;5070409;28;19936;-74
2020/12/29 11:12:00;;;;;;;;;;;4.10;99.90;;;;;;5071386;28;19916;-74
2020/12/29 11:14:26;;;;;;;;;;;4.30;99.90;;;;;;5071500;28;19913;-74
2020/12/29 11:16:52;;;;;;;;;;;4.30;99.90;;;;;;5071105;28;19909;-74
2020/12/29 11:19:17;;;;;;;;;;;4.40;99.90;;;;;;5070946;28;20372;-75
2020/12/29 11:21:46;;;;;;;;;;;4.50;99.90;;;;;;5071417;28;20365;-74
2020/12/29 11:24:12;;;;;;;;;;;4.50;99.90;;;;;;5069879;28;19977;-74
2020/12/29 11:26:37;;;;;;;;;;;4.50;99.90;;;;;;5075680;28;20367;-77
2020/12/29 11:29:03;;;;;;;;;;;4.50;99.90;;;;;;5069929;28;19908;-74
2020/12/29 11:31:28;;;;;;;;;;;4.50;99.90;;;;;;5071267;28;19917;-74
2020/12/29 11:33:54;;;;;;;;;;;4.50;99.90;;;;;;5071282;28;19908;-74
2020/12/29 11:36:21;;;;;;;;;;;4.60;99.90;;;;;;5071061;28;19951;-75
2020/12/29 11:38:47;;;;;;;;;;;4.60;99.90;;;;;;5071097;28;19913;-74
2020/12/29 11:41:13;;;;;;;;;;;4.60;99.90;;;;;;5070957;28;19939;-74
2020/12/29 11:43:38;;;;;;;;;;;4.70;99.90;;;;;;5064609;28;19909;-74
2020/12/29 11:46:04;;;;;;;;;;;4.70;99.90;;;;;;5069589;28;19915;-75
2020/12/29 11:48:30;;;;;;;;;;;4.70;99.90;;;;;;5063767;28;19986;-75
2020/12/29 11:50:56;;;;;;;;;;;4.80;99.90;;;;;;5057355;28;20384;-77
2020/12/29 11:53:21;;;;;;;;;;;4.90;99.90;;;;;;5071016;28;19915;-74
2020/12/29 11:55:47;;;;;;;;;;;4.90;99.90;;;;;;5076030;28;19916;-74
2020/12/29 11:58:12;;;;;;;;;;;4.90;99.90;;;;;;5072217;28;19955;-74
2020/12/29 12:00:38;;;;;;;;;;;4.90;99.90;;;;;;5071128;28;19909;-75
2020/12/29 12:03:03;;;;;;;;;;;4.90;99.90;;;;;;5070105;28;20369;-74
2020/12/29 12:05:29;;;;;;;;;;;4.90;99.90;;;;;;5071238;28;19955;-75
2020/12/29 12:07:54;;;;;;;;;;;4.80;99.90;;;;;;5070440;28;19912;-78
2020/12/29 12:10:20;;;;;;;;;;;4.70;99.90;;;;;;5070834;28;19908;-75
2020/12/29 12:12:45;;;;;;;;;;;4.70;99.90;;;;;;5071210;28;20291;-75
2020/12/29 12:15:11;;;;;;;;;;;4.70;99.90;;;;;;5071007;28;20259;-75
2020/12/29 12:17:37;;;;;;;;;;;4.70;99.90;;;;;;5070413;28;19965;-75
2020/12/29 12:20:02;;;;;;;;;;;4.60;99.90;;;;;;5070911;28;19912;-75
2020/12/29 12:22:28;;;;;;;;;;;4.50;99.90;;;;;;5070734;28;19961;-75
2020/12/29 12:24:53;;;;;;;;;;;4.50;99.90;;;;;;5073567;28;19909;-75
2020/12/29 12:27:19;;;;;;;;;;;4.60;99.90;;;;;;5070174;28;19909;-76
2020/12/29 12:29:44;;;;;;;;;;;4.60;99.90;;;;;;5071085;28;19992;-75
2020/12/29 12:32:10;;;;;;;;;;;4.70;99.90;;;;;;5074474;28;20294;-75
2020/12/29 12:34:36;;;;;;;;;;;4.80;99.90;;;;;;5074447;28;19912;-75
2020/12/29 12:37:01;;;;;;;;;;;4.80;99.90;;;;;;5073944;28;19908;-75
2020/12/29 12:39:27;;;;;;;;;;;4.90;99.90;;;;;;5074121;28;19962;-77
2020/12/29 12:41:52;;;;;;;;;;;4.80;99.90;;;;;;5074336;28;19912;-75
2020/12/29 12:44:18;;;;;;;;;;;4.80;99.90;;;;;;5074425;28;19908;-75
2020/12/29 12:46:44;;;;;;;;;;;4.80;99.90;;;;;;5073836;28;19913;-75
2020/12/29 12:49:10;;;;;;;;;;;4.80;99.90;;;;;;5072787;28;19909;-76
2020/12/29 12:51:36;;;;;;;;;;;4.90;99.90;;;;;;5073988;28;19913;-77
2020/12/29 12:54:01;;;;;;;;;;;4.90;99.90;;;;;;5073669;28;19916;-77
2020/12/29 12:56:29;;;;;;;;;;;4.90;99.90;;;;;;5077864;28;19982;-75
2020/12/29 12:58:55;;;;;;;;;;;4.90;99.90;;;;;;5073908;28;19909;-75
2020/12/29 13:01:21;;;;;;;;;;;4.90;99.90;;;;;;5074060;28;19916;-75
2020/12/29 13:03:47;;;;;;;;;;;4.90;99.90;;;;;;5073835;28;20280;-75
2020/12/29 13:06:20;;;;;;;;;;;4.80;99.90;;;;;;5073471;28;19909;-75
2020/12/29 13:08:45;;;;;;;;;;;4.90;99.90;;;;;;5072413;28;19908;-77
2020/12/29 13:11:11;;;;;;;;;;;4.90;99.90;;;;;;5072526;28;20270;-75
2020/12/29 13:13:36;;;;;;;;;;;4.90;99.90;;;;;;5073737;28;19991;-75
2020/12/29 13:16:02;;;;;;;;;;;4.90;99.90;;;;;;5073435;28;19912;-77
2020/12/29 13:18:27;;;;;;;;;;;4.90;99.90;;;;;;5073642;28;20320;-75
2020/12/29 13:20:53;;;;;;;;;;;5.00;99.90;;;;;;5074147;28;19962;-75
2020/12/29 13:23:18;;;;;;;;;;;5.00;99.90;;;;;;5073013;28;20011;-75
2020/12/29 13:25:44;;;;;;;;;;;5.00;99.90;;;;;;5072769;28;19908;-75
2020/12/29 13:28:09;;;;;;;;;;;5.00;99.90;;;;;;5073363;28;20175;-75
2020/12/29 13:30:35;;;;;;;;;;;5.10;99.90;;;;;;5073045;28;19991;-75
2020/12/29 13:33:00;;;;;;;;;;;5.00;99.90;;;;;;5073149;28;19913;-78
2020/12/29 13:35:25;;;;;;;;;;;5.10;99.90;;;;;;5071957;28;19912;-75
2020/12/29 13:37:51;;;;;;;;;;;5.10;99.90;;;;;;5073187;28;20046;-75
2020/12/29 13:40:17;;;;;;;;;;;5.00;99.90;;;;;;5072958;28;19909;-76
2020/12/29 13:42:45;;;;;;;;;;;5.00;99.90;;;;;;5073153;28;19908;-75
2020/12/29 13:45:11;;;;;;;;;;;5.00;99.90;;;;;;5073077;28;20368;-76
2020/12/29 13:47:36;;;;;;;;;;;5.00;99.90;;;;;;5072690;28;19919;-78
2020/12/29 13:50:02;;;;;;;;;;;5.00;99.90;;;;;;5072383;28;19908;-75
2020/12/29 13:52:28;;;;;;;;;;;5.00;99.90;;;;;;5071139;28;19938;-75
2020/12/29 13:54:53;;;;;;;;;;;4.90;99.90;;;;;;5076693;28;19915;-76
2020/12/29 13:57:18;;;;;;;;;;;5.00;99.90;;;;;;5072261;28;20369;-75
2020/12/29 13:59:44;;;;;;;;;;;5.00;99.90;;;;;;5071435;28;19908;-75
2020/12/29 14:02:09;;;;;;;;;;;5.00;99.90;;;;;;5072604;28;19908;-75
2020/12/29 14:04:35;;;;;;;;;;;5.00;99.90;;;;;;5072692;28;19951;-78
2020/12/29 14:07:00;;;;;;;;;;;4.90;99.90;;;;;;5072183;28;20012;-75
2020/12/29 14:09:27;;;;;;;;;;;4.90;99.90;;;;;;5071513;28;19912;-75
2020/12/29 14:11:53;;;;;;;;;;;4.90;99.90;;;;;;5072396;28;20000;-75
2020/12/29 14:14:22;;;;;;;;;;;4.90;99.90;;;;;;5072470;28;19908;-75
2020/12/29 14:16:50;;;;;;;;;;;4.80;99.90;;;;;;5070795;28;19950;-75
2020/12/29 14:19:15;;;;;;;;;;;4.90;99.90;;;;;;5072059;28;19909;-77
2020/12/29 14:21:44;;;;;;;;;;;4.90;99.90;;;;;;5072382;28;19919;-75
2020/12/29 14:24:11;;;;;;;;;;;5.00;99.90;;;;;;5071443;28;20288;-74
2020/12/29 14:26:37;;;;;;;;;;;5.00;99.90;;;;;;5071651;28;19915;-75